Time;durP1;ratioP1;P1;durP2;ratioP2;P2;SDS_P1;SDS_P2;PMS_P1;PMS_P2;Temp;Humidity;BMP_temperature;BMP_pressure;BME280_temperature;BME280_humidity;BME280_pressure;Samples;Min_cycle;Max_cycle;Signal;HPM_P1;HPM_P2
2022/01/16 00:00:36;;;;;;;;;67.50;54.50;;;;;-0.29;100.00;102311.56;5080934;27;44836;-81
2022/01/16 00:05:45;;;;;;;;;83.25;62.25;;;;;-0.43;100.00;102305.41;5111038;27;45072;-79
2022/01/16 00:08:11;;;;;;;;;68.50;52.00;;;;;-0.50;100.00;102295.81;5112211;27;44638;-82
2022/01/16 00:10:37;;;;;;;;;59.25;48.00;;;;;-0.47;100.00;102281.91;5103381;27;44768;-82
2022/01/16 00:13:02;;;;;;;;;67.67;50.67;;;;;-0.48;100.00;102281.03;5109043;27;44886;-81
2022/01/16 00:15:44;;;;;;;;;74.00;52.00;;;;;-0.45;100.00;102298.44;5078869;27;46433;-82
2022/01/16 00:18:28;;;;;;;;;78.25;58.50;;;;;-0.45;100.00;102312.34;5097008;27;44698;-82
2022/01/16 00:20:54;;;;;;;;;65.00;53.67;;;;;-0.37;100.00;102294.13;5097852;27;44761;-82
2022/01/16 00:23:25;;;;;;;;;68.00;50.33;;;;;-0.28;100.00;102278.50;5097427;27;44923;-81
2022/01/16 00:25:52;;;;;;;;;66.00;50.67;;;;;-0.33;100.00;102304.59;5100184;27;45379;-81
2022/01/16 00:28:20;;;;;;;;;76.33;58.67;;;;;-0.42;100.00;102315.00;5100463;27;45212;-81
2022/01/16 00:30:46;;;;;;;;;62.00;46.25;;;;;-0.35;100.00;102316.75;5099971;27;44907;-82
2022/01/16 00:33:11;;;;;;;;;74.25;55.75;;;;;-0.31;100.00;102336.78;5105730;27;45402;-81
2022/01/16 00:35:37;;;;;;;;;74.50;57.25;;;;;-0.31;100.00;102344.59;5101296;27;45040;-81
2022/01/16 00:38:03;;;;;;;;;71.33;53.33;;;;;-0.20;100.00;102331.59;5096969;27;44855;-82
2022/01/16 00:40:29;;;;;;;;;77.33;56.00;;;;;-0.17;100.00;102313.31;5068111;27;44870;-81
2022/01/16 00:42:57;;;;;;;;;64.00;50.00;;;;;-0.23;100.00;102292.44;5083794;27;45478;-81
2022/01/16 00:45:23;;;;;;;;;60.50;47.50;;;;;-0.27;100.00;102301.97;5060600;28;46907;-81
2022/01/16 00:47:48;;;;;;;;;73.67;55.67;;;;;-0.26;100.00;102298.50;5079338;27;44925;-82
2022/01/16 00:50:13;;;;;;;;;76.00;53.33;;;;;-0.17;100.00;102320.28;5079617;28;44811;-81
2022/01/16 00:52:39;;;;;;;;;68.00;51.67;;;;;-0.05;100.00;102320.31;5079733;27;44851;-82
2022/01/16 00:55:05;;;;;;;;;84.75;58.00;;;;;-0.26;100.00;102326.34;5079593;27;45026;-81
2022/01/16 00:57:31;;;;;;;;;74.00;56.67;;;;;-0.23;100.00;102326.38;5079280;27;45341;-81
2022/01/16 00:59:56;;;;;;;;;73.00;53.33;;;;;-0.34;100.00;102313.28;5082425;27;44663;-80
2022/01/16 01:02:23;;;;;;;;;75.33;54.00;;;;;-0.30;100.00;102364.63;5081810;28;44812;-80
2022/01/16 01:04:49;;;;;;;;;70.67;48.67;;;;;-0.30;100.00;102354.19;5079489;27;44923;-81
2022/01/16 01:07:15;;;;;;;;;74.67;52.67;;;;;-0.26;100.00;102370.75;5078561;27;44797;-81
2022/01/16 01:09:40;;;;;;;;;74.33;54.67;;;;;-0.26;100.00;102349.84;5060519;28;44949;-81
2022/01/16 01:12:06;;;;;;;;;65.33;46.33;;;;;-0.16;100.00;102371.66;5098493;27;44752;-81
2022/01/16 01:15:03;;;;;;;;;66.75;52.75;;;;;-0.13;100.00;102367.31;5099161;27;45283;-81
2022/01/16 01:17:27;;;;;;;;;67.75;52.25;;;;;-0.23;100.00;102373.38;5099114;27;44783;-81
2022/01/16 01:19:52;;;;;;;;;63.00;47.00;;;;;-0.30;100.00;102362.00;5098862;27;44780;-81
2022/01/16 01:22:18;;;;;;;;;69.33;53.33;;;;;-0.30;100.00;102324.59;5099659;27;44862;-81
2022/01/16 01:24:43;;;;;;;;;69.00;51.00;;;;;-0.22;100.00;102277.63;5099368;27;45345;-81
2022/01/16 01:27:23;;;;;;;;;70.33;50.67;;;;;-0.11;100.00;102288.97;5103112;27;44815;-80
2022/01/16 01:29:57;;;;;;;;;68.67;53.67;;;;;-0.08;100.00;102273.31;5101971;27;44800;-80
2022/01/16 01:32:23;;;;;;;;;69.33;53.33;;;;;-0.14;100.00;102245.44;5099031;27;45218;-80
2022/01/16 01:34:49;;;;;;;;;74.67;53.00;;;;;-0.23;100.00;102263.69;5098120;27;45290;-81
2022/01/16 01:37:14;;;;;;;;;67.00;54.67;;;;;-0.28;100.00;102288.94;5098842;27;45311;-82
2022/01/16 01:39:40;;;;;;;;;64.00;48.33;;;;;-0.25;100.00;102317.63;5083047;27;44809;-80
2022/01/16 01:42:09;;;;;;;;;79.67;57.00;;;;;-0.30;100.00;102324.59;5098741;27;44757;-80
2022/01/16 01:52:54;;;;;;;;;72.33;47.67;;;;;-0.37;100.00;102369.84;5078524;27;44764;-80
2022/01/16 01:55:19;;;;;;;;;59.33;46.33;;;;;-0.27;100.00;102363.78;5084279;27;45112;-80
2022/01/16 01:57:45;;;;;;;;;59.67;49.33;;;;;-0.24;100.00;102350.75;5065808;27;44833;-82
2022/01/16 02:00:17;;;;;;;;;67.67;50.33;;;;;-0.17;100.00;102370.78;5078373;27;44774;-81
2022/01/16 02:05:28;;;;;;;;;75.00;52.67;;;;;-0.09;100.00;102391.72;5078015;27;44909;-80
2022/01/16 02:07:54;;;;;;;;;76.67;54.33;;;;;-0.10;100.00;102401.25;5077972;27;44816;-81
2022/01/16 02:10:19;;;;;;;;;67.00;51.67;;;;;-0.10;100.00;102403.88;5084056;27;44794;-82
2022/01/16 02:12:47;;;;;;;;;74.67;55.67;;;;;-0.07;100.00;102416.09;5084338;27;44942;-81
2022/01/16 02:31:59;;;;;;;;;62.33;48.00;;;;;0.10;100.00;102419.66;5035500;28;44811;-80
2022/01/16 02:34:31;;;;;;;;;71.00;53.33;;;;;0.20;100.00;102415.31;5018097;28;44997;-81
2022/01/16 02:37:01;;;;;;;;;74.33;54.00;;;;;0.26;100.00;102412.72;5034090;28;45278;-80
2022/01/16 02:39:28;;;;;;;;;65.67;49.00;;;;;0.31;100.00;102410.13;5034859;28;44942;-81
2022/01/16 02:41:55;;;;;;;;;72.33;53.67;;;;;0.35;100.00;102398.81;5016030;28;44838;-80
2022/01/16 02:44:33;;;;;;;;;66.33;51.00;;;;;0.37;100.00;102391.81;5014931;28;44778;-81
2022/01/16 02:47:00;;;;;;;;;68.00;51.00;;;;;0.38;100.00;102370.03;5033137;28;45546;-82
2022/01/16 02:49:28;;;;;;;;;65.00;45.67;;;;;0.40;100.00;102376.16;5034396;28;44898;-81
2022/01/16 02:52:00;;;;;;;;;61.67;46.00;;;;;0.40;100.00;102370.94;5034887;28;44754;-79
2022/01/16 02:54:27;;;;;;;;;71.00;50.33;;;;;0.45;100.00;102366.59;5050493;27;44953;-80
2022/01/16 02:56:52;;;;;;;;;76.00;53.67;;;;;0.48;100.00;102372.69;5096676;27;45370;-79
2022/01/16 02:59:20;;;;;;;;;71.00;54.00;;;;;0.49;100.00;102382.28;5098635;27;45278;-81
2022/01/16 03:01:46;;;;;;;;;68.67;49.00;;;;;0.51;100.00;102374.41;5103109;27;44747;-81
2022/01/16 03:04:11;;;;;;;;;67.33;51.00;;;;;0.49;100.00;102370.94;5100518;27;44942;-81
2022/01/16 03:06:37;;;;;;;;;76.00;52.00;;;;;0.45;100.00;102374.44;5097688;27;45036;-81
2022/01/16 03:09:06;;;;;;;;;73.67;56.00;;;;;0.49;100.00;102373.56;5097639;27;44993;-81
2022/01/16 03:11:39;;;;;;;;;60.67;47.67;;;;;0.50;100.00;102357.88;5082869;27;44799;-81
2022/01/16 03:14:08;;;;;;;;;67.33;51.00;;;;;0.52;100.00;102360.47;5042979;28;44888;-81
2022/01/16 03:16:34;;;;;;;;;62.33;45.67;;;;;0.52;100.00;102356.13;5078627;27;44987;-81
2022/01/16 03:21:57;;;;;;;;;68.00;52.67;;;;;0.56;100.00;102343.91;5079159;27;44820;-81
2022/01/16 03:24:29;;;;;;;;;75.00;53.33;;;;;0.61;100.00;102350.03;5078853;28;44893;-81
2022/01/16 03:27:18;;;;;;;;;68.67;53.00;;;;;0.64;100.00;102343.94;5078365;27;45353;-82
2022/01/16 03:29:51;;;;;;;;;76.33;55.33;;;;;0.65;100.00;102346.53;5077522;28;44866;-81
2022/01/16 03:32:20;;;;;;;;;67.33;48.67;;;;;0.69;100.00;102350.03;5059674;28;45305;-80
2022/01/16 03:34:46;;;;;;;;;67.67;49.00;;;;;0.71;100.00;102353.50;5078314;27;44812;-80
2022/01/16 03:37:11;;;;;;;;;67.33;54.00;;;;;0.75;100.00;102356.13;5084458;27;45147;-79
2022/01/16 03:39:37;;;;;;;;;67.67;53.00;;;;;0.80;100.00;102350.91;5079906;27;45318;-79
2022/01/16 03:42:05;;;;;;;;;68.33;50.33;;;;;0.82;100.00;102366.56;5076787;27;44915;-80
2022/01/16 03:44:30;;;;;;;;;74.67;54.00;;;;;0.81;100.00;102370.06;5076576;28;45343;-80
2022/01/16 03:46:57;;;;;;;;;75.67;54.00;;;;;0.85;100.00;102383.16;5086215;27;45270;-80
2022/01/16 03:49:29;;;;;;;;;71.33;50.33;;;;;0.87;100.00;102384.03;5096497;27;44855;-79
2022/01/16 03:51:56;;;;;;;;;69.33;50.67;;;;;0.89;100.00;102376.19;5097133;27;44685;-80
2022/01/16 03:54:25;;;;;;;;;71.67;52.00;;;;;0.91;100.00;102356.97;5097174;27;45257;-79
2022/01/16 03:56:50;;;;;;;;;74.67;57.00;;;;;0.90;100.00;102357.00;5096653;27;44966;-80
2022/01/16 03:59:17;;;;;;;;;80.00;58.33;;;;;0.84;100.00;102370.09;5098532;27;44800;-80
2022/01/16 04:01:43;;;;;;;;;64.00;52.67;;;;;0.82;100.00;102361.34;5100940;27;44781;-80
2022/01/16 04:04:09;;;;;;;;;74.67;57.00;;;;;0.82;100.00;102364.81;5100675;27;45231;-80
2022/01/16 04:06:35;;;;;;;;;67.00;50.67;;;;;0.79;100.00;102375.31;5100108;27;45030;-80
2022/01/16 04:09:01;;;;;;;;;69.00;52.67;;;;;0.75;100.00;102377.06;5100463;27;44792;-80
2022/01/16 04:11:28;;;;;;;;;74.33;54.00;;;;;0.73;100.00;102376.19;5097937;27;44929;-80
2022/01/16 04:14:04;;;;;;;;;77.33;52.67;;;;;0.70;100.00;102376.19;5087717;27;45590;-80
2022/01/16 04:16:30;;;;;;;;;70.67;54.00;;;;;0.71;100.00;102383.16;5082370;27;44984;-80
2022/01/16 04:18:56;;;;;;;;;76.67;56.67;;;;;0.70;100.00;102391.88;5061511;27;45323;-80
2022/01/16 04:21:24;;;;;;;;;76.33;55.67;;;;;0.65;100.00;102388.38;5089870;27;44796;-80
2022/01/16 04:23:50;;;;;;;;;79.00;57.00;;;;;0.62;100.00;102390.97;5100088;27;44764;-79
2022/01/16 04:26:17;;;;;;;;;78.67;55.33;;;;;0.56;100.00;102400.56;5099828;27;45216;-80
2022/01/16 04:28:43;;;;;;;;;78.00;56.67;;;;;0.56;100.00;102413.66;5099554;27;44859;-80
2022/01/16 04:31:09;;;;;;;;;81.00;56.67;;;;;0.56;100.00;102409.28;5099504;27;44867;-80
2022/01/16 04:33:35;;;;;;;;;79.67;58.00;;;;;0.54;100.00;102413.66;5099852;27;44872;-79
2022/01/16 04:36:00;;;;;;;;;71.67;49.00;;;;;0.50;100.00;102418.00;5099710;27;45000;-80
2022/01/16 04:38:26;;;;;;;;;76.00;56.67;;;;;0.49;100.00;102424.09;5094647;27;45361;-80
2022/01/16 04:43:48;;;;;;;;;76.67;54.67;;;;;0.49;100.00;102441.53;5079264;27;44840;-79
2022/01/16 04:46:33;;;;;;;;;74.00;56.00;;;;;0.47;100.00;102443.25;5079309;27;45397;-83
2022/01/16 04:49:00;;;;;;;;;78.67;52.00;;;;;0.32;100.00;102432.78;5079623;27;44804;-79
2022/01/16 04:51:27;;;;;;;;;72.00;54.33;;;;;0.31;100.00;102431.03;5095469;27;44775;-79
2022/01/16 04:53:53;;;;;;;;;75.00;57.00;;;;;0.32;100.00;102438.00;5084153;27;44941;-80
2022/01/16 04:56:18;;;;;;;;;73.33;54.67;;;;;0.27;100.00;102435.38;5081620;27;46783;-80
2022/01/16 04:58:45;;;;;;;;;81.00;59.00;;;;;0.30;100.00;102426.69;5099642;27;44725;-80
2022/01/16 05:01:11;;;;;;;;;75.00;53.00;;;;;0.33;100.00;102421.44;5099996;27;44798;-79
2022/01/16 05:03:38;;;;;;;;;64.33;54.00;;;;;0.35;100.00;102431.03;5099819;27;44821;-79
2022/01/16 05:06:04;;;;;;;;;77.33;57.67;;;;;0.12;100.00;102432.72;5100094;27;45284;-80
2022/01/16 05:08:32;;;;;;;;;82.00;58.00;;;;;0.04;100.00;102450.94;5099601;27;45236;-80
2022/01/16 05:10:58;;;;;;;;;69.33;49.33;;;;;0.04;100.00;102448.34;5099841;27;44737;-78
2022/01/16 05:16:33;;;;;;;;;68.67;55.00;;;;;0.07;100.00;102458.81;5099179;27;45408;-80
2022/01/16 05:18:56;;;;;;;;;75.33;53.33;;;;;0.16;100.00;102458.84;5097361;27;44802;-78
2022/01/16 05:21:22;;;;;;;;;69.00;52.33;;;;;0.21;100.00;102451.91;5079601;27;45459;-80
2022/01/16 05:23:48;;;;;;;;;69.00;53.00;;;;;0.27;100.00;102455.41;5079126;27;44762;-79
2022/01/16 05:26:17;;;;;;;;;68.00;55.00;;;;;0.28;100.00;102468.47;5061392;27;46725;-79
2022/01/16 05:28:42;;;;;;;;;75.00;52.67;;;;;0.24;100.00;102466.72;5082055;27;45375;-80
2022/01/16 05:31:08;;;;;;;;;77.33;56.33;;;;;0.20;100.00;102478.03;5081161;27;45233;-80
2022/01/16 05:33:33;;;;;;;;;83.00;59.67;;;;;0.11;100.00;102489.31;5079847;27;44856;-80
2022/01/16 05:35:59;;;;;;;;;81.00;58.00;;;;;0.02;100.00;102499.72;5078687;27;45007;-80
2022/01/16 05:38:24;;;;;;;;;66.67;51.67;;;;;0.03;100.00;102492.75;5077847;27;45363;-80
2022/01/16 05:40:50;;;;;;;;;70.33;52.33;;;;;0.10;100.00;102507.63;5078313;27;44766;-78
2022/01/16 05:43:16;;;;;;;;;76.00;53.33;;;;;0.03;100.00;102513.66;5078956;27;44975;-79
2022/01/16 05:45:41;;;;;;;;;63.33;50.00;;;;;0.09;100.00;102516.28;5078981;27;45393;-80
2022/01/16 05:48:06;;;;;;;;;69.33;49.67;;;;;0.15;100.00;102505.91;5099280;27;45365;-79
2022/01/16 05:50:32;;;;;;;;;77.00;56.00;;;;;0.18;100.00;102501.53;5068402;27;44904;-80
2022/01/16 05:53:02;;;;;;;;;66.00;51.00;;;;;0.25;100.00;102481.53;5098906;27;44841;-80
2022/01/16 05:55:35;;;;;;;;;68.33;50.33;;;;;0.29;100.00;102483.31;5098127;27;45392;-80
2022/01/16 05:58:01;;;;;;;;;61.33;50.67;;;;;0.33;100.00;102479.81;5098570;27;45482;-79
2022/01/16 06:00:26;;;;;;;;;67.00;50.33;;;;;0.30;100.00;102505.09;5098755;27;44815;-80
2022/01/16 06:02:52;;;;;;;;;61.67;45.67;;;;;0.30;100.00;102510.31;5098757;27;44855;-80
2022/01/16 06:05:17;;;;;;;;;66.33;47.67;;;;;0.18;100.00;102506.75;5099235;27;45105;-79
2022/01/16 06:07:52;;;;;;;;;68.67;49.00;;;;;0.16;100.00;102505.03;5082396;27;44855;-80
2022/01/16 06:10:18;;;;;;;;;64.33;49.00;;;;;0.19;100.00;102521.59;5104201;27;44761;-80
2022/01/16 06:12:43;;;;;;;;;68.33;50.67;;;;;0.25;100.00;102519.00;5103802;27;44926;-80
2022/01/16 06:15:09;;;;;;;;;63.00;48.33;;;;;0.31;100.00;102515.53;5100078;27;45276;-80
2022/01/16 06:17:34;;;;;;;;;73.00;47.67;;;;;0.38;100.00;102508.59;5098895;27;44738;-80
2022/01/16 06:20:00;;;;;;;;;66.67;50.33;;;;;0.40;100.00;102525.16;5098054;27;44819;-80
2022/01/16 06:22:27;;;;;;;;;59.00;47.00;;;;;0.37;100.00;102539.06;5096707;27;45405;-80
2022/01/16 06:24:52;;;;;;;;;66.00;45.33;;;;;0.35;100.00;102525.16;5096721;27;45418;-80
2022/01/16 06:27:18;;;;;;;;;42.67;39.00;;;;;0.34;100.00;102536.47;5099308;27;45292;-80
2022/01/16 06:29:43;;;;;;;;;69.33;52.00;;;;;0.32;100.00;102532.09;5098862;27;45389;-80
2022/01/16 06:32:09;;;;;;;;;44.67;34.00;;;;;0.24;100.00;102542.50;5079739;27;44963;-80
2022/01/16 06:34:34;;;;;;;;;61.00;43.33;;;;;0.14;100.00;102543.31;5097873;27;45098;-81
2022/01/16 06:37:00;;;;;;;;;59.67;45.00;;;;;0.05;100.00;102552.00;5079492;27;44757;-80
2022/01/16 06:39:25;;;;;;;;;46.67;37.33;;;;;0.13;100.00;102546.81;5083646;27;45363;-80
2022/01/16 06:41:51;;;;;;;;;44.33;39.00;;;;;0.22;100.00;102549.47;5077637;27;44785;-80
2022/01/16 06:44:16;;;;;;;;;43.67;41.00;;;;;0.17;100.00;102540.72;5077238;27;45179;-79
2022/01/16 06:46:42;;;;;;;;;51.67;38.67;;;;;0.12;100.00;102543.31;5086253;27;44731;-80
2022/01/16 06:49:10;;;;;;;;;51.67;37.00;;;;;0.14;100.00;102552.03;5096617;27;45532;-80
2022/01/16 06:51:36;;;;;;;;;51.33;43.00;;;;;0.24;100.00;102563.41;5095935;27;44870;-80
2022/01/16 06:54:03;;;;;;;;;50.00;38.67;;;;;0.28;100.00;102565.16;5100818;27;45548;-82
2022/01/16 06:56:29;;;;;;;;;47.67;35.00;;;;;0.34;100.00;102553.88;5084432;27;45367;-82
2022/01/16 06:58:55;;;;;;;;;45.67;35.00;;;;;0.37;100.00;102560.00;5082685;27;44762;-80
2022/01/16 07:01:21;;;;;;;;;43.33;35.33;;;;;0.44;100.00;102568.75;5097923;27;44923;-81
2022/01/16 07:03:46;;;;;;;;;41.00;34.67;;;;;0.48;100.00;102570.50;5098037;27;44915;-82
2022/01/16 07:06:12;;;;;;;;;39.67;31.33;;;;;0.55;100.00;102571.41;5097833;27;44730;-80
2022/01/16 07:08:37;;;;;;;;;51.33;39.67;;;;;0.60;100.00;102573.16;5079449;27;44819;-81
2022/01/16 07:11:03;;;;;;;;;41.67;35.00;;;;;0.63;100.00;102583.66;5079643;27;44890;-81
2022/01/16 07:13:29;;;;;;;;;49.67;36.33;;;;;0.66;100.00;102588.00;5078471;27;46443;-81
2022/01/16 07:15:55;;;;;;;;;47.00;38.00;;;;;0.72;100.00;102601.97;5097532;27;44813;-81
2022/01/16 07:18:21;;;;;;;;;51.00;36.33;;;;;0.72;100.00;102599.34;5097517;27;45365;-80
2022/01/16 07:20:46;;;;;;;;;55.00;41.00;;;;;0.72;100.00;102601.09;5096584;27;45406;-81
2022/01/16 07:23:14;;;;;;;;;60.00;41.00;;;;;0.77;100.00;102591.53;5096925;27;45166;-81
2022/01/16 07:25:40;;;;;;;;;54.67;37.67;;;;;0.81;100.00;102585.44;5097569;27;44729;-80
2022/01/16 07:28:07;;;;;;;;;32.33;28.33;;;;;0.86;100.00;102598.53;5097743;27;44706;-80
2022/01/16 07:30:32;;;;;;;;;52.67;38.67;;;;;0.87;100.00;102605.50;5078874;27;44842;-80
2022/01/16 07:32:58;;;;;;;;;37.00;32.00;;;;;0.90;100.00;102584.59;5087615;27;45428;-80
2022/01/16 07:35:23;;;;;;;;;42.00;36.67;;;;;0.91;100.00;102566.28;5100305;27;44757;-81
2022/01/16 07:37:49;;;;;;;;;54.67;37.67;;;;;0.96;100.00;102558.44;5096810;27;44732;-81
2022/01/16 07:40:20;;;;;;;;;51.67;38.67;;;;;0.98;100.00;102585.50;5089662;27;45311;-81
2022/01/16 07:42:46;;;;;;;;;41.00;31.67;;;;;0.98;100.00;102604.69;5076456;28;45154;-80
2022/01/16 07:45:11;;;;;;;;;36.33;30.67;;;;;1.01;100.00;102606.44;5091599;27;44744;-81
2022/01/16 07:47:37;;;;;;;;;46.00;34.33;;;;;1.04;100.00;102611.69;5074483;27;44833;-80
2022/01/16 07:50:02;;;;;;;;;45.33;34.67;;;;;1.10;100.00;102610.81;5077508;27;45286;-82
2022/01/16 07:52:28;;;;;;;;;45.33;30.67;;;;;1.13;100.00;102616.06;5077722;27;45609;-82
2022/01/16 07:54:53;;;;;;;;;44.67;36.33;;;;;1.13;100.00;102613.44;5096062;27;44743;-79
2022/01/16 07:57:19;;;;;;;;;54.00;39.00;;;;;1.16;100.00;102616.06;5077839;27;45062;-80
2022/01/16 07:59:44;;;;;;;;;42.33;31.67;;;;;1.14;100.00;102600.34;5096492;27;44812;-85
2022/01/16 08:02:09;;;;;;;;;47.33;35.00;;;;;1.17;100.00;102591.66;5075809;27;46192;-83
2022/01/16 08:04:35;;;;;;;;;55.67;37.67;;;;;1.19;100.00;102592.53;5076219;27;45300;-83
2022/01/16 08:07:02;;;;;;;;;44.67;30.67;;;;;1.18;100.00;102589.03;5076803;27;45397;-83
2022/01/16 08:09:27;;;;;;;;;39.67;29.33;;;;;1.24;100.00;102602.13;5060904;28;44884;-81
2022/01/16 08:11:53;;;;;;;;;46.33;35.33;;;;;1.27;100.00;102601.28;5061071;28;45311;-82
2022/01/16 08:14:18;;;;;;;;;46.67;38.00;;;;;1.28;100.00;102597.78;5081943;28;44862;-82
2022/01/16 08:16:43;;;;;;;;;43.67;33.00;;;;;1.30;100.00;102598.63;5083549;27;44860;-83
2022/01/16 08:19:09;;;;;;;;;56.00;37.00;;;;;1.34;100.00;102597.78;5082328;28;44821;-83
2022/01/16 08:21:34;;;;;;;;;49.67;38.33;;;;;1.34;100.00;102605.63;5077190;27;44870;-84
2022/01/16 08:24:03;;;;;;;;;58.33;37.67;;;;;1.36;100.00;102606.53;5076796;28;44837;-83
2022/01/16 08:26:32;;;;;;;;;45.33;33.33;;;;;1.40;100.00;102618.75;5075449;27;44854;-85
2022/01/16 08:28:58;;;;;;;;;56.33;38.00;;;;;1.44;100.00;102630.94;5058766;28;44829;-82
2022/01/16 08:31:24;;;;;;;;;46.67;32.67;;;;;1.44;100.00;102619.59;5090142;27;45243;-84
2022/01/16 08:33:50;;;;;;;;;57.67;40.67;;;;;1.46;100.00;102610.03;5096433;27;44762;-83
2022/01/16 08:36:16;;;;;;;;;36.00;35.33;;;;;1.53;100.00;102609.13;5096265;27;44814;-84
2022/01/16 08:38:41;;;;;;;;;53.33;37.00;;;;;1.57;100.00;102610.91;5097327;27;44845;-84
2022/01/16 08:41:07;;;;;;;;;52.33;37.67;;;;;1.54;100.00;102603.88;5079901;27;45409;-83
2022/01/16 08:43:32;;;;;;;;;45.33;38.33;;;;;1.56;100.00;102611.78;5080710;27;44823;-83
2022/01/16 08:45:58;;;;;;;;;58.33;40.00;;;;;1.61;100.00;102614.41;5101921;27;45184;-83
2022/01/16 08:48:23;;;;;;;;;44.67;34.33;;;;;1.63;100.00;102604.78;5082791;27;44785;-83
2022/01/16 08:50:49;;;;;;;;;46.33;29.67;;;;;1.62;100.00;102609.16;5075542;27;45402;-85
2022/01/16 08:53:14;;;;;;;;;41.67;39.00;;;;;1.63;100.00;102612.63;5089685;27;45440;-83
2022/01/16 08:55:40;;;;;;;;;46.67;38.00;;;;;1.65;100.00;102619.63;5097559;27;44810;-83
2022/01/16 08:58:05;;;;;;;;;42.67;37.33;;;;;1.67;100.00;102617.88;5093532;27;44809;-83
2022/01/16 09:00:32;;;;;;;;;48.00;38.67;;;;;1.76;100.00;102625.75;5077286;28;45082;-83
2022/01/16 09:02:58;;;;;;;;;53.00;39.67;;;;;1.93;100.00;102637.94;5097435;27;44831;-83
2022/01/16 09:05:24;;;;;;;;;45.67;41.00;;;;;2.09;100.00;102637.09;5067025;28;44782;-82
2022/01/16 09:07:50;;;;;;;;;55.67;41.33;;;;;2.19;100.00;102628.34;5083021;27;44796;-85
2022/01/16 09:10:15;;;;;;;;;45.33;37.33;;;;;2.28;100.00;102630.94;5085955;28;45186;-83
2022/01/16 09:12:41;;;;;;;;;57.33;34.33;;;;;2.35;100.00;102633.53;5085926;27;44753;-83
2022/01/16 09:15:09;;;;;;;;;45.33;36.67;;;;;2.38;100.00;102639.66;5082818;27;45348;-83
2022/01/16 09:17:34;;;;;;;;;45.00;37.33;;;;;2.36;100.00;102643.16;5094393;27;44734;-84
2022/01/16 09:20:00;;;;;;;;;30.33;28.00;;;;;2.34;100.00;102656.28;5101154;27;45196;-83
2022/01/16 09:22:26;;;;;;;;;39.33;36.00;;;;;2.36;100.00;102656.25;5100150;27;45306;-83
2022/01/16 09:24:51;;;;;;;;;62.67;41.33;;;;;2.42;100.00;102657.13;5080733;27;45333;-83
2022/01/16 09:27:18;;;;;;;;;59.67;40.00;;;;;2.48;100.00;102657.13;5099225;27;45279;-83
2022/01/16 09:29:44;;;;;;;;;42.00;33.33;;;;;2.48;100.00;102657.13;5087399;27;45364;-83
2022/01/16 09:32:13;;;;;;;;;37.00;30.33;;;;;2.47;100.00;102631.78;5060927;28;45482;-83
2022/01/16 09:34:42;;;;;;;;;49.33;31.67;;;;;2.47;100.00;102658.00;5096482;27;45524;-84
2022/01/16 09:37:09;;;;;;;;;48.00;37.33;;;;;2.48;100.00;102661.50;5083411;27;45485;-84
2022/01/16 09:39:36;;;;;;;;;42.33;32.67;;;;;2.54;100.00;102656.22;5098440;27;45220;-83
2022/01/16 09:42:03;;;;;;;;;43.33;39.33;;;;;2.57;100.00;102659.72;5100776;27;44871;-84
2022/01/16 09:44:29;;;;;;;;;29.33;19.67;;;;;2.64;100.00;102660.56;5062613;28;44804;-82
2022/01/16 09:46:55;;;;;;;;;42.33;30.33;;;;;2.69;100.00;102658.78;5096566;27;45303;-83
2022/01/16 09:49:20;;;;;;;;;42.00;32.00;;;;;2.80;100.00;102666.63;5086790;27;45486;-85
2022/01/16 09:51:46;;;;;;;;;45.67;27.67;;;;;2.87;100.00;102652.63;5060688;27;44863;-84
2022/01/16 09:54:12;;;;;;;;;30.67;30.00;;;;;2.93;100.00;102652.59;5078877;27;44945;-83
2022/01/16 09:56:37;;;;;;;;;39.00;25.67;;;;;2.92;100.00;102652.59;5061013;28;44876;-84
2022/01/16 09:59:03;;;;;;;;;42.67;31.33;;;;;2.88;100.00;102658.72;5061195;28;46793;-84
2022/01/16 10:01:28;;;;;;;;;32.67;28.33;;;;;2.84;100.00;102656.09;5073495;27;44745;-82
2022/01/16 10:03:53;;;;;;;;;41.00;36.00;;;;;2.81;100.00;102663.16;5081390;27;45351;-82
2022/01/16 10:06:21;;;;;;;;;31.00;25.33;;;;;2.79;100.00;102667.50;5098972;27;45360;-84
2022/01/16 10:08:49;;;;;;;;;31.00;27.00;;;;;2.79;100.00;102657.00;5077303;27;45375;-84
2022/01/16 10:11:28;;;;;;;;;32.67;27.33;;;;;2.89;100.00;102653.47;5068011;27;45382;-84
2022/01/16 10:14:09;;;;;;;;;30.00;26.67;;;;;3.07;100.00;102642.03;5101104;27;44828;-83
2022/01/16 10:16:40;;;;;;;;;34.33;26.00;;;;;3.37;100.00;102653.22;5085993;27;45240;-83
2022/01/16 10:19:32;;;;;;;;;32.67;27.33;;;;;3.60;100.00;102649.56;5082697;27;45006;-84
2022/01/16 10:22:11;;;;;;;;;30.00;28.67;;;;;3.69;100.00;102648.63;5094100;27;44839;-84
2022/01/16 10:24:39;;;;;;;;;35.00;29.33;;;;;3.76;100.00;102658.19;5090057;27;45140;-85
2022/01/16 10:27:07;;;;;;;;;31.00;30.67;;;;;3.72;100.00;102650.34;5085089;27;45263;-84
2022/01/16 10:29:35;;;;;;;;;33.00;25.33;;;;;3.65;100.00;102644.28;5078395;27;45370;-84
2022/01/16 10:32:33;;;;;;;;;29.67;27.00;;;;;3.71;100.00;102648.59;5086316;27;45485;-84
2022/01/16 10:35:23;;;;;;;;;27.33;26.00;;;;;3.67;100.00;102653.00;5068843;27;44936;-82
2022/01/16 10:37:53;;;;;;;;;35.33;30.33;;;;;3.59;100.00;102650.47;5085914;27;44815;-82
2022/01/16 10:40:21;;;;;;;;;40.67;32.33;;;;;3.51;100.00;102644.38;5088297;27;45567;-82
2022/01/16 10:42:55;;;;;;;;;32.67;31.00;;;;;3.48;100.00;102652.28;5088807;27;44920;-83
2022/01/16 10:45:28;;;;;;;;;31.67;24.67;;;;;3.53;100.00;102657.50;5094263;27;45313;-84
2022/01/16 10:48:01;;;;;;;;;34.33;30.00;;;;;3.57;100.00;102649.56;5096615;27;44824;-85
2022/01/16 10:50:31;;;;;;;;;43.00;31.67;;;;;3.72;100.00;102652.97;5086062;27;45421;-83
2022/01/16 10:53:08;;;;;;;;;32.67;29.67;;;;;3.89;100.00;102645.84;5076341;27;44856;-82
2022/01/16 10:55:41;;;;;;;;;29.00;27.67;;;;;3.93;100.00;102649.31;5080343;27;44916;-83
2022/01/16 10:58:09;;;;;;;;;30.33;29.67;;;;;3.88;100.00;102656.38;5086540;27;45261;-84
2022/01/16 11:00:36;;;;;;;;;31.67;29.67;;;;;3.82;100.00;102642.41;5089183;27;45138;-84
2022/01/16 11:03:05;;;;;;;;;33.00;26.67;;;;;3.82;100.00;102652.91;5088890;27;45375;-83
2022/01/16 11:05:50;;;;;;;;;24.67;24.67;;;;;3.80;100.00;102644.16;5092932;27;44791;-83
2022/01/16 11:08:27;;;;;;;;;41.33;31.67;;;;;3.86;100.00;102645.84;5072201;27;45341;-83
2022/01/16 11:10:56;;;;;;;;;30.33;27.33;;;;;3.93;100.00;102650.19;5082154;27;45499;-83
2022/01/16 11:13:23;;;;;;;;;36.00;30.67;;;;;4.11;100.00;102642.16;5093631;27;45478;-82
2022/01/16 11:15:52;;;;;;;;;34.67;26.67;;;;;4.29;100.00;102646.34;5074280;27;44842;-83
2022/01/16 11:18:20;;;;;;;;;30.67;25.00;;;;;4.27;100.00;102644.63;5087423;27;44910;-84
2022/01/16 11:21:02;;;;;;;;;40.33;29.33;;;;;4.23;100.00;102650.78;5077202;27;45252;-83
2022/01/16 11:23:44;;;;;;;;;25.00;21.00;;;;;4.11;100.00;102649.16;5073645;27;45313;-83
2022/01/16 11:26:10;;;;;;;;;41.33;32.67;;;;;4.08;100.00;102636.03;5080673;27;44790;-84
2022/01/16 11:28:35;;;;;;;;;31.00;23.67;;;;;4.01;100.00;102634.31;5088404;27;44872;-84
2022/01/16 11:31:04;;;;;;;;;42.00;33.33;;;;;3.97;100.00;102641.41;5089066;27;45371;-83
2022/01/16 11:33:34;;;;;;;;;45.33;37.33;;;;;3.99;100.00;102644.88;5086804;27;45280;-84
2022/01/16 11:36:04;;;;;;;;;31.67;30.67;;;;;3.98;100.00;102645.75;5066841;27;45285;-84
2022/01/16 11:38:31;;;;;;;;;33.67;28.00;;;;;3.97;100.00;102653.69;5074610;27;44986;-84
2022/01/16 11:41:10;;;;;;;;;33.33;23.00;;;;;3.96;100.00;102650.16;5085461;27;45335;-84
2022/01/16 11:43:37;;;;;;;;;35.00;28.67;;;;;3.93;100.00;102644.94;5081385;27;45373;-84
2022/01/16 11:46:08;;;;;;;;;32.67;25.33;;;;;3.98;100.00;102651.03;5063428;27;44931;-84
2022/01/16 11:48:41;;;;;;;;;27.00;26.67;;;;;4.08;100.00;102650.06;5076124;27;44908;-83